Time;durP1;ratioP1;P1;durP2;ratioP2;P2;SDS_P1;SDS_P2;PMS_P1;PMS_P2;Temp;Humidity;BMP_temperature;BMP_pressure;BME280_temperature;BME280_humidity;BME280_pressure;Samples;Min_cycle;Max_cycle;Signal;HPM_P1;HPM_P2
2023/02/18 00:01:20;;;;;;;16.38;3.17;;;7.70;99.90;;;;;;7375976;19;20018;-65
2023/02/18 00:03:52;;;;;;;24.85;4.20;;;7.70;99.90;;;;;;7374817;19;20028;-64
2023/02/18 00:06:25;;;;;;;14.40;3.72;;;7.70;99.90;;;;;;7367651;19;20029;-64
2023/02/18 00:08:52;;;;;;;15.07;3.50;;;7.80;99.90;;;;;;7373434;19;20014;-64
2023/02/18 00:11:19;;;;;;;19.08;3.90;;;7.80;99.90;;;;;;7374022;19;20877;-64
2023/02/18 00:13:50;;;;;;;14.48;3.00;;;7.80;99.90;;;;;;7373544;19;20618;-64
2023/02/18 00:16:16;;;;;;;16.35;4.22;;;7.80;99.90;;;;;;7374876;19;20591;-64
2023/02/18 00:18:45;;;;;;;13.02;3.50;;;7.90;99.90;;;;;;7373072;19;20502;-64
2023/02/18 00:21:11;;;;;;;18.77;3.53;;;7.80;99.90;;;;;;7376883;19;20041;-65
2023/02/18 00:23:38;;;;;;;16.52;4.40;;;7.90;99.90;;;;;;7380044;19;20018;-65
2023/02/18 00:26:13;;;;;;;15.93;3.33;;;7.90;99.90;;;;;;7376286;19;20893;-65
2023/02/18 00:28:41;;;;;;;15.68;4.03;;;7.90;99.90;;;;;;7375792;19;20015;-65
2023/02/18 00:31:09;;;;;;;18.10;3.78;;;7.90;99.90;;;;;;7380682;19;20018;-65
2023/02/18 00:33:36;;;;;;;17.63;3.40;;;7.90;99.90;;;;;;7372627;19;20588;-64
2023/02/18 00:36:05;;;;;;;18.45;4.00;;;7.90;99.90;;;;;;7377098;19;20022;-65
2023/02/18 00:38:32;;;;;;;14.38;3.47;;;7.80;99.90;;;;;;7375093;19;20023;-65
2023/02/18 00:40:59;;;;;;;20.65;3.92;;;7.90;99.90;;;;;;7375488;19;20504;-64
2023/02/18 00:43:26;;;;;;;18.13;4.43;;;7.90;99.90;;;;;;7372485;19;20033;-64
2023/02/18 00:45:52;;;;;;;14.88;4.85;;;7.80;99.90;;;;;;7379596;19;20097;-64
2023/02/18 00:48:19;;;;;;;20.40;4.65;;;7.80;99.90;;;;;;7379498;19;20049;-65
2023/02/18 00:50:46;;;;;;;14.13;4.00;;;7.80;99.90;;;;;;7378167;19;20029;-65
2023/02/18 00:53:12;;;;;;;20.05;4.22;;;7.80;99.90;;;;;;7378265;19;20104;-65
2023/02/18 00:55:44;;;;;;;19.60;4.65;;;7.80;99.90;;;;;;7378987;19;20015;-65
2023/02/18 00:58:10;;;;;;;16.52;4.38;;;7.80;99.90;;;;;;7374967;19;20015;-65
2023/02/18 01:00:37;;;;;;;18.70;5.00;;;7.80;99.90;;;;;;7380330;19;20031;-65
2023/02/18 01:03:06;;;;;;;20.13;5.03;;;7.80;99.90;;;;;;7375060;19;20057;-64
2023/02/18 01:05:33;;;;;;;15.70;4.85;;;7.90;99.90;;;;;;7380522;19;20461;-65
2023/02/18 01:07:59;;;;;;;17.20;5.07;;;7.90;99.90;;;;;;7377362;19;20035;-65
2023/02/18 01:10:28;;;;;;;16.67;5.65;;;7.90;99.90;;;;;;7373097;19;20049;-64
2023/02/18 01:12:54;;;;;;;25.00;5.85;;;8.00;99.90;;;;;;7373466;19;20014;-64
2023/02/18 01:15:22;;;;;;;24.17;6.13;;;8.00;99.90;;;;;;7374037;19;20704;-64
2023/02/18 01:17:50;;;;;;;20.50;7.25;;;8.00;99.90;;;;;;7376179;19;20023;-64
2023/02/18 01:20:18;;;;;;;26.40;7.72;;;8.00;99.90;;;;;;7372558;19;20018;-64
2023/02/18 01:22:44;;;;;;;19.23;7.28;;;8.10;99.90;;;;;;7372779;19;20018;-64
2023/02/18 01:25:27;;;;;;;26.55;9.55;;;8.10;99.90;;;;;;7378624;19;20018;-65
2023/02/18 01:27:54;;;;;;;18.98;9.20;;;8.10;99.90;;;;;;7375546;19;20025;-65
2023/02/18 01:30:22;;;;;;;22.80;9.98;;;8.10;99.90;;;;;;7375130;19;20025;-64
2023/02/18 01:32:49;;;;;;;21.02;10.52;;;8.10;99.90;;;;;;7378257;19;20015;-65
2023/02/18 01:35:18;;;;;;;25.23;10.13;;;8.20;99.90;;;;;;7373393;19;20607;-64
2023/02/18 01:37:46;;;;;;;24.23;9.77;;;8.20;99.90;;;;;;7373935;19;20856;-65
2023/02/18 01:40:19;;;;;;;32.80;10.55;;;8.30;99.90;;;;;;7371983;19;20017;-64
2023/02/18 01:42:45;;;;;;;25.40;10.02;;;8.30;99.90;;;;;;7374479;19;20045;-64
2023/02/18 01:45:34;;;;;;;22.08;11.00;;;8.30;99.90;;;;;;7368292;19;20618;-64
2023/02/18 01:48:03;;;;;;;22.35;11.25;;;8.30;99.90;;;;;;7369647;19;20446;-64
2023/02/18 01:50:34;;;;;;;23.42;9.68;;;8.30;99.90;;;;;;7371110;19;20761;-64
2023/02/18 01:53:05;;;;;;;26.80;10.23;;;8.40;99.90;;;;;;7370616;19;20030;-64
2023/02/18 01:55:33;;;;;;;30.17;10.15;;;8.40;99.90;;;;;;7372653;19;20018;-65
2023/02/18 01:58:01;;;;;;;25.35;10.32;;;8.40;99.90;;;;;;7373885;19;20044;-65
2023/02/18 02:00:42;;;;;;;25.13;10.13;;;8.40;99.90;;;;;;7376120;19;20636;-64
2023/02/18 02:03:09;;;;;;;30.90;9.07;;;8.40;99.90;;;;;;7371829;19;20018;-65
2023/02/18 02:05:36;;;;;;;22.73;9.45;;;8.50;99.90;;;;;;7376566;19;20027;-65
2023/02/18 02:08:04;;;;;;;25.75;8.70;;;8.50;99.90;;;;;;7374305;19;20021;-65
2023/02/18 02:10:50;;;;;;;23.80;8.57;;;8.50;99.90;;;;;;7373591;19;20018;-65
2023/02/18 02:13:34;;;;;;;20.27;9.85;;;8.50;99.90;;;;;;7372553;19;20041;-65
2023/02/18 02:16:12;;;;;;;23.20;9.32;;;8.50;99.90;;;;;;7370472;19;20093;-64
2023/02/18 02:18:45;;;;;;;23.92;8.63;;;8.50;99.90;;;;;;7373156;19;20023;-64
2023/02/18 02:21:23;;;;;;;23.67;9.30;;;8.50;99.90;;;;;;7374793;19;20382;-64
2023/02/18 02:24:15;;;;;;;33.38;10.52;;;8.50;99.90;;;;;;7372429;19;20348;-64
2023/02/18 02:26:59;;;;;;;24.92;10.25;;;8.50;99.90;;;;;;7374629;19;20022;-64
2023/02/18 02:29:41;;;;;;;21.35;8.98;;;8.50;99.90;;;;;;7367643;19;20048;-64
2023/02/18 02:32:20;;;;;;;20.92;9.57;;;8.50;99.90;;;;;;7371265;19;20018;-64
2023/02/18 02:34:59;;;;;;;24.80;9.90;;;8.60;99.90;;;;;;7370321;19;20050;-64
2023/02/18 02:38:03;;;;;;;21.38;8.68;;;8.60;99.90;;;;;;7370694;19;20709;-64
2023/02/18 02:40:36;;;;;;;25.42;9.60;;;8.60;99.90;;;;;;7368424;19;20482;-64
2023/02/18 02:43:19;;;;;;;19.13;8.45;;;8.60;99.90;;;;;;7375215;19;20660;-64
2023/02/18 02:45:59;;;;;;;18.70;8.98;;;8.60;99.90;;;;;;7363074;19;20670;-64
2023/02/18 02:48:37;;;;;;;22.80;9.02;;;8.60;99.90;;;;;;7371877;19;20042;-64
2023/02/18 02:51:15;;;;;;;18.27;7.93;;;8.70;99.90;;;;;;7369084;19;20351;-64
2023/02/18 02:53:42;;;;;;;20.45;8.25;;;8.70;99.90;;;;;;7368223;19;20051;-64
2023/02/18 02:56:16;;;;;;;21.55;8.90;;;8.70;99.90;;;;;;7370601;19;20022;-65
2023/02/18 02:59:01;;;;;;;14.30;6.60;;;8.70;99.90;;;;;;7373305;19;20487;-65
2023/02/18 03:01:32;;;;;;;22.35;8.77;;;8.70;99.90;;;;;;7376172;19;20030;-64
2023/02/18 03:04:30;;;;;;;22.83;9.15;;;8.70;99.90;;;;;;7376195;19;20022;-65
2023/02/18 03:07:24;;;;;;;19.00;8.55;;;8.80;99.90;;;;;;7372925;19;20025;-64
2023/02/18 03:09:55;;;;;;;25.30;9.93;;;8.80;99.90;;;;;;7376463;19;20037;-64
2023/02/18 03:12:30;;;;;;;19.05;9.85;;;8.80;99.90;;;;;;7375487;19;20022;-64
2023/02/18 03:15:22;;;;;;;23.25;11.05;;;8.80;99.90;;;;;;7374820;19;20925;-64
2023/02/18 03:18:04;;;;;;;36.00;14.95;;;8.80;99.90;;;;;;7374653;19;20027;-64
2023/02/18 03:20:37;;;;;;;32.55;16.35;;;8.80;99.90;;;;;;7374054;19;20921;-64
2023/02/18 03:23:10;;;;;;;32.60;17.92;;;8.90;99.90;;;;;;7369707;19;20414;-64
2023/02/18 03:25:40;;;;;;;40.40;20.42;;;8.90;99.90;;;;;;7365361;19;20034;-63
2023/02/18 03:28:10;;;;;;;35.50;21.77;;;9.00;99.90;;;;;;7378754;19;20627;-64
2023/02/18 03:30:55;;;;;;;37.03;23.02;;;8.90;99.90;;;;;;7380871;19;20021;-64
2023/02/18 03:33:37;;;;;;;46.70;25.35;;;9.00;99.90;;;;;;7382799;19;20022;-64
2023/02/18 03:36:05;;;;;;;50.30;28.05;;;9.00;99.90;;;;;;7380767;19;20030;-64
2023/02/18 03:38:38;;;;;;;42.20;25.00;;;9.00;99.90;;;;;;7380616;19;20021;-64
2023/02/18 03:41:05;;;;;;;49.38;30.20;;;9.00;99.90;;;;;;7381906;19;20384;-64
2023/02/18 03:43:35;;;;;;;50.08;29.75;;;9.10;99.90;;;;;;7383977;19;20098;-64
2023/02/18 03:46:02;;;;;;;46.63;29.33;;;9.10;99.90;;;;;;7380736;19;20030;-64
2023/02/18 03:48:30;;;;;;;57.80;31.80;;;9.10;99.90;;;;;;7384023;19;20474;-64
2023/02/18 03:50:56;;;;;;;62.47;35.65;;;9.10;99.90;;;;;;7378492;19;20607;-64
2023/02/18 03:53:23;;;;;;;58.38;33.90;;;9.20;99.90;;;;;;7374615;19;21185;-64
2023/02/18 03:55:49;;;;;;;58.72;35.72;;;9.20;99.90;;;;;;7377405;19;20049;-64
2023/02/18 03:58:16;;;;;;;54.05;34.65;;;9.30;99.90;;;;;;7370646;19;20022;-63
2023/02/18 04:00:43;;;;;;;58.50;35.78;;;9.30;99.90;;;;;;7377549;19;20022;-65
2023/02/18 04:03:13;;;;;;;61.20;35.28;;;9.30;99.90;;;;;;7377866;19;20059;-64
2023/02/18 04:05:40;;;;;;;59.00;35.40;;;9.30;99.90;;;;;;7372569;19;20048;-63
2023/02/18 04:08:06;;;;;;;55.85;35.83;;;9.30;99.90;;;;;;7370007;19;20768;-63
2023/02/18 04:10:32;;;;;;;54.72;34.88;;;9.40;99.90;;;;;;7374632;19;20025;-64
2023/02/18 04:12:59;;;;;;;59.53;33.40;;;9.30;99.90;;;;;;7378947;19;20029;-64
2023/02/18 04:15:25;;;;;;;58.67;33.85;;;9.40;99.90;;;;;;7377222;19;20623;-64
2023/02/18 04:17:52;;;;;;;57.60;34.45;;;9.30;99.90;;;;;;7376951;19;20569;-64
2023/02/18 04:20:18;;;;;;;60.72;34.25;;;9.30;99.90;;;;;;7378246;19;20018;-64
2023/02/18 04:22:45;;;;;;;69.10;35.83;;;9.40;99.90;;;;;;7376706;19;20018;-65
2023/02/18 04:25:11;;;;;;;59.00;36.00;;;9.30;99.90;;;;;;7370305;19;20889;-63
2023/02/18 04:27:37;;;;;;;59.10;36.55;;;9.40;99.90;;;;;;7370279;19;20021;-65
2023/02/18 04:30:04;;;;;;;67.68;37.55;;;9.40;99.90;;;;;;7376797;19;20078;-64
2023/02/18 04:32:31;;;;;;;62.45;38.17;;;9.40;99.90;;;;;;7376670;19;20018;-65
2023/02/18 04:34:57;;;;;;;57.65;35.75;;;9.40;99.90;;;;;;7377896;19;20022;-64
2023/02/18 04:37:24;;;;;;;61.17;37.38;;;9.40;99.90;;;;;;7371328;19;20014;-64
2023/02/18 04:39:50;;;;;;;64.93;38.08;;;9.40;99.90;;;;;;7377299;19;20023;-65
2023/02/18 04:42:17;;;;;;;64.07;36.25;;;9.40;99.90;;;;;;7373788;19;20082;-65
2023/02/18 04:44:43;;;;;;;59.97;35.42;;;9.40;99.90;;;;;;7379516;19;20101;-64
2023/02/18 04:47:10;;;;;;;64.82;36.63;;;9.40;99.90;;;;;;7375818;19;20030;-64
2023/02/18 04:49:37;;;;;;;65.03;36.47;;;9.40;99.90;;;;;;7376541;19;20105;-64
2023/02/18 04:52:03;;;;;;;70.80;38.10;;;9.40;99.90;;;;;;7370217;19;20046;-63
2023/02/18 04:54:30;;;;;;;72.85;37.08;;;9.40;99.90;;;;;;7371365;19;20794;-64
2023/02/18 04:56:56;;;;;;;89.28;39.75;;;9.40;99.90;;;;;;7367424;19;20022;-64
2023/02/18 04:59:23;;;;;;;82.53;39.75;;;9.30;99.90;;;;;;7371502;19;20031;-63
2023/02/18 05:01:50;;;;;;;95.80;42.67;;;9.30;99.90;;;;;;7369223;19;20018;-63
2023/02/18 05:04:16;;;;;;;93.80;41.35;;;9.30;99.90;;;;;;7371090;19;20033;-64
2023/02/18 05:06:43;;;;;;;109.13;43.67;;;9.20;99.90;;;;;;7369257;19;20483;-63
2023/02/18 05:09:10;;;;;;;111.57;43.30;;;9.20;99.90;;;;;;7370468;19;20815;-63
2023/02/18 05:11:38;;;;;;;119.85;44.70;;;9.20;99.90;;;;;;7368934;19;20022;-65
2023/02/18 05:14:05;;;;;;;116.40;44.45;;;9.20;99.90;;;;;;7372621;19;20022;-65
2023/02/18 05:16:31;;;;;;;126.88;46.53;;;9.20;99.90;;;;;;7371854;19;20528;-65
2023/02/18 05:18:58;;;;;;;147.15;46.90;;;9.20;99.90;;;;;;7373452;19;20011;-65
2023/02/18 05:21:24;;;;;;;155.82;53.60;;;9.30;99.90;;;;;;7373851;19;20452;-65
2023/02/18 05:23:50;;;;;;;184.77;53.78;;;9.30;99.90;;;;;;7372343;19;20029;-65
2023/02/18 05:26:17;;;;;;;185.02;54.38;;;9.30;99.90;;;;;;7371877;19;20019;-65
2023/02/18 05:28:45;;;;;;;188.85;55.00;;;9.30;99.90;;;;;;7368524;19;20022;-65
2023/02/18 05:31:12;;;;;;;199.70;53.97;;;9.40;99.90;;;;;;7368292;19;20035;-64
2023/02/18 05:33:40;;;;;;;176.68;50.88;;;9.40;99.90;;;;;;7368853;19;20497;-64
2023/02/18 05:36:07;;;;;;;179.75;51.55;;;9.30;99.90;;;;;;7369171;19;20125;-64
2023/02/18 05:38:37;;;;;;;138.82;43.88;;;9.40;99.90;;;;;;7366292;19;20037;-63
2023/02/18 05:41:04;;;;;;;139.32;42.20;;;9.40;99.90;;;;;;7365834;19;20428;-63
2023/02/18 05:44:28;;;;;;;108.72;36.75;;;9.40;99.90;;;;;;7369069;19;20030;-63
2023/02/18 05:46:17;;;;;;;101.22;34.30;;;9.40;99.90;;;;;;7366024;19;20051;-62
2023/02/18 05:48:43;;;;;;;82.88;28.70;;;9.40;99.90;;;;;;7368144;19;20062;-62
2023/02/18 05:51:12;;;;;;;82.93;31.13;;;9.50;99.90;;;;;;7365716;19;20028;-61
2023/02/18 05:53:39;;;;;;;80.53;28.67;;;9.50;99.90;;;;;;7369257;19;20014;-62
2023/02/18 05:56:06;;;;;;;74.95;27.55;;;9.50;99.90;;;;;;7364731;19;20023;-61
2023/02/18 05:58:33;;;;;;;64.07;25.63;;;9.50;99.90;;;;;;7354792;19;20836;-62
2023/02/18 06:01:00;;;;;;;57.95;23.58;;;9.50;99.90;;;;;;7359284;19;20014;-61
2023/02/18 06:03:27;;;;;;;51.20;21.50;;;9.60;99.90;;;;;;7361938;19;20022;-61
2023/02/18 06:05:55;;;;;;;45.95;19.20;;;9.50;99.90;;;;;;7363440;19;20019;-62
2023/02/18 06:08:22;;;;;;;50.60;20.15;;;9.60;99.90;;;;;;7365869;19;20367;-62
2023/02/18 06:10:48;;;;;;;45.20;18.23;;;9.60;99.90;;;;;;7367782;19;20910;-63
2023/02/18 06:13:17;;;;;;;48.83;18.50;;;9.60;99.90;;;;;;7368922;19;20015;-62
2023/02/18 06:15:43;;;;;;;48.65;18.63;;;9.60;99.90;;;;;;7369234;19;20018;-64
2023/02/18 06:18:09;;;;;;;44.60;17.33;;;9.60;99.90;;;;;;7366655;19;20033;-61
2023/02/18 06:20:36;;;;;;;41.63;15.05;;;9.60;99.90;;;;;;7369677;19;20335;-62
2023/02/18 06:23:02;;;;;;;35.60;14.57;;;9.60;99.90;;;;;;7369073;19;20037;-63
2023/02/18 06:25:28;;;;;;;29.85;12.52;;;9.50;99.90;;;;;;7368517;19;20018;-65
2023/02/18 06:27:55;;;;;;;29.20;12.55;;;9.60;99.90;;;;;;7368300;19;20033;-64
2023/02/18 06:30:21;;;;;;;31.20;12.90;;;9.60;99.90;;;;;;7365557;19;20018;-64
2023/02/18 06:32:47;;;;;;;27.95;12.50;;;9.60;99.90;;;;;;7365986;19;20022;-64
2023/02/18 06:35:14;;;;;;;26.08;11.27;;;9.60;99.90;;;;;;7367661;19;20038;-65
2023/02/18 06:37:40;;;;;;;24.00;11.48;;;9.60;99.90;;;;;;7364421;19;20343;-65
2023/02/18 06:40:07;;;;;;;21.45;9.52;;;9.60;99.90;;;;;;7365009;19;20798;-64
2023/02/18 06:42:35;;;;;;;21.35;10.18;;;9.60;99.90;;;;;;7366355;19;20018;-63
2023/02/18 06:45:01;;;;;;;20.85;10.60;;;9.70;99.90;;;;;;7368515;19;20029;-63
2023/02/18 06:47:28;;;;;;;21.92;10.88;;;9.60;99.90;;;;;;7363697;19;20025;-63
2023/02/18 06:49:54;;;;;;;24.23;10.77;;;9.70;99.90;;;;;;7362474;19;20018;-63
2023/02/18 06:52:21;;;;;;;21.13;11.90;;;9.70;99.90;;;;;;7360620;19;20022;-63
2023/02/18 06:54:47;;;;;;;25.08;13.10;;;9.70;99.90;;;;;;7360454;19;20018;-64
2023/02/18 06:57:13;;;;;;;25.75;13.43;;;9.80;99.90;;;;;;7363083;19;20039;-64
2023/02/18 06:59:40;;;;;;;24.02;13.52;;;9.70;99.90;;;;;;7368233;19;20019;-64
2023/02/18 07:02:06;;;;;;;26.40;14.25;;;9.80;99.90;;;;;;7371815;19;20058;-64
2023/02/18 07:04:33;;;;;;;24.23;17.00;;;9.80;99.90;;;;;;7372769;19;20018;-64
2023/02/18 07:07:00;;;;;;;29.42;17.60;;;9.90;99.90;;;;;;7371015;19;20022;-64
2023/02/18 07:09:29;;;;;;;32.70;20.65;;;9.90;99.90;;;;;;7372170;19;20022;-64
2023/02/18 07:12:00;;;;;;;30.70;21.08;;;9.90;99.90;;;;;;7373153;19;20045;-64
2023/02/18 07:14:27;;;;;;;32.60;20.33;;;9.90;99.90;;;;;;7374039;19;20052;-64
2023/02/18 07:16:54;;;;;;;31.02;20.58;;;9.90;99.90;;;;;;7371165;19;20023;-64
2023/02/18 07:19:20;;;;;;;36.22;22.85;;;10.00;99.90;;;;;;7372219;19;20015;-62
2023/02/18 07:21:47;;;;;;;34.85;24.67;;;10.00;99.90;;;;;;7370526;19;20015;-63
2023/02/18 07:24:13;;;;;;;33.85;24.13;;;10.00;99.90;;;;;;7370085;19;20031;-63
2023/02/18 07:26:40;;;;;;;37.45;26.05;;;9.90;99.90;;;;;;7372687;19;20481;-62
2023/02/18 07:29:06;;;;;;;36.08;25.05;;;10.00;99.90;;;;;;7371794;19;20019;-63
2023/02/18 07:31:32;;;;;;;39.47;27.40;;;9.90;99.90;;;;;;7372174;19;20022;-63
2023/02/18 07:33:59;;;;;;;41.92;27.13;;;10.00;99.90;;;;;;7371364;19;20022;-63
2023/02/18 07:36:25;;;;;;;40.15;28.23;;;9.90;99.90;;;;;;7372646;19;20031;-62
2023/02/18 07:38:52;;;;;;;40.53;27.55;;;9.90;99.90;;;;;;7369653;19;20378;-62
2023/02/18 07:41:21;;;;;;;36.78;28.73;;;9.90;99.90;;;;;;7365254;19;20011;-62
2023/02/18 07:43:47;;;;;;;39.67;26.58;;;9.90;99.90;;;;;;7371692;19;20035;-62
2023/02/18 07:46:14;;;;;;;41.17;28.60;;;9.90;99.90;;;;;;7372667;19;20461;-62
2023/02/18 07:48:41;;;;;;;35.22;26.70;;;9.80;99.90;;;;;;7371571;19;20018;-62
2023/02/18 07:51:10;;;;;;;36.90;25.95;;;9.90;99.90;;;;;;7369590;19;20024;-63
2023/02/18 07:53:41;;;;;;;35.42;24.23;;;9.80;99.90;;;;;;7372015;19;20054;-62
2023/02/18 07:56:10;;;;;;;29.70;21.83;;;9.80;99.90;;;;;;7370565;19;20014;-62
2023/02/18 07:58:38;;;;;;;27.33;20.98;;;9.80;99.90;;;;;;7365059;19;20849;-63
2023/02/18 08:01:06;;;;;;;24.33;18.30;;;9.70;99.90;;;;;;7372017;19;20019;-63
2023/02/18 08:03:34;;;;;;;27.15;19.02;;;9.80;99.90;;;;;;7367782;19;20015;-64
2023/02/18 08:06:02;;;;;;;28.92;18.95;;;9.70;99.90;;;;;;7372301;19;20015;-63
2023/02/18 08:08:30;;;;;;;25.85;17.35;;;9.70;99.90;;;;;;7367688;19;20018;-64
2023/02/18 08:11:01;;;;;;;28.30;16.88;;;9.80;99.90;;;;;;7371326;19;20824;-64
2023/02/18 08:13:29;;;;;;;29.67;18.00;;;9.80;99.90;;;;;;7367028;19;20022;-63
2023/02/18 08:15:56;;;;;;;24.17;15.85;;;9.80;99.90;;;;;;7370668;19;20018;-64
2023/02/18 08:18:24;;;;;;;26.35;15.70;;;9.80;99.90;;;;;;7364351;19;20109;-63
2023/02/18 08:20:51;;;;;;;26.40;16.38;;;9.80;99.90;;;;;;7369286;19;20089;-64
2023/02/18 08:23:22;;;;;;;23.00;15.48;;;9.80;99.90;;;;;;7363263;19;20130;-63
2023/02/18 08:25:50;;;;;;;25.15;16.50;;;9.80;99.90;;;;;;7367983;19;20765;-65
2023/02/18 08:28:17;;;;;;;22.65;13.25;;;9.90;99.90;;;;;;7364873;19;20025;-63
2023/02/18 08:30:48;;;;;;;20.98;14.02;;;9.90;99.90;;;;;;7366643;19;20021;-63
2023/02/18 08:33:18;;;;;;;21.00;12.27;;;9.90;99.90;;;;;;7368783;19;20034;-62
2023/02/18 08:35:46;;;;;;;19.65;12.23;;;9.90;99.90;;;;;;7369401;19;20026;-63
2023/02/18 08:38:13;;;;;;;20.58;11.40;;;9.90;99.90;;;;;;7365064;19;20041;-63
2023/02/18 08:40:40;;;;;;;21.33;12.07;;;9.90;99.90;;;;;;7367656;19;20052;-63
2023/02/18 08:43:07;;;;;;;16.73;11.60;;;9.90;99.90;;;;;;7366708;19;20042;-63
2023/02/18 08:45:37;;;;;;;18.20;11.93;;;9.90;99.90;;;;;;7368788;19;20023;-61
2023/02/18 08:48:05;;;;;;;20.45;10.52;;;9.90;99.90;;;;;;7362946;19;20608;-61
2023/02/18 08:50:36;;;;;;;16.20;10.35;;;9.90;99.90;;;;;;7365788;19;20115;-62
2023/02/18 08:53:03;;;;;;;18.67;11.55;;;9.90;99.90;;;;;;7368757;19;20135;-62
2023/02/18 08:55:31;;;;;;;16.52;10.88;;;9.90;99.90;;;;;;7370231;19;20133;-62
2023/02/18 08:57:58;;;;;;;17.20;10.02;;;9.90;99.90;;;;;;7365908;19;20074;-63
2023/02/18 09:00:25;;;;;;;18.08;9.93;;;9.90;99.90;;;;;;7367197;19;20074;-63
2023/02/18 09:03:13;;;;;;;13.85;9.57;;;9.90;99.90;;;;;;7366274;19;20056;-63
2023/02/18 09:05:40;;;;;;;14.43;9.13;;;9.90;99.90;;;;;;7368948;19;20026;-63
2023/02/18 09:08:08;;;;;;;20.25;10.95;;;9.90;99.90;;;;;;7365365;19;20469;-64
2023/02/18 09:10:35;;;;;;;22.10;11.77;;;9.80;99.90;;;;;;7369440;19;20018;-64
2023/02/18 09:13:02;;;;;;;16.15;9.95;;;9.90;99.90;;;;;;7365855;19;20052;-63
2023/02/18 09:15:36;;;;;;;14.05;8.68;;;9.80;99.90;;;;;;7368271;19;20035;-64
2023/02/18 09:18:06;;;;;;;18.27;9.07;;;9.80;99.90;;;;;;7363314;19;20022;-62
2023/02/18 09:20:32;;;;;;;15.32;8.60;;;9.70;99.90;;;;;;7353508;19;20022;-62
2023/02/18 09:23:03;;;;;;;15.00;8.27;;;9.70;99.90;;;;;;7359649;19;20014;-63
2023/02/18 09:25:29;;;;;;;19.35;9.05;;;9.70;99.90;;;;;;7356368;19;20070;-62
2023/02/18 09:27:55;;;;;;;13.07;7.75;;;9.60;99.90;;;;;;7358235;19;20026;-63
2023/02/18 09:30:22;;;;;;;13.63;8.25;;;9.60;99.90;;;;;;7358196;19;20029;-62
2023/02/18 09:32:48;;;;;;;17.25;9.43;;;9.50;99.90;;;;;;7362667;19;20025;-62
2023/02/18 09:35:15;;;;;;;18.13;8.60;;;9.50;99.90;;;;;;7360336;19;20872;-62
2023/02/18 09:37:41;;;;;;;17.65;8.13;;;9.50;99.90;;;;;;7357299;19;20029;-62
2023/02/18 09:40:25;;;;;;;15.98;8.23;;;9.50;99.90;;;;;;7358681;19;20011;-62
2023/02/18 09:42:54;;;;;;;18.95;8.75;;;9.50;99.90;;;;;;7351998;19;20019;-61
2023/02/18 09:45:21;;;;;;;15.02;7.45;;;9.50;99.90;;;;;;7360220;19;20010;-61
2023/02/18 09:47:52;;;;;;;14.27;7.27;;;9.40;99.90;;;;;;7360569;19;20026;-61
2023/02/18 09:50:31;;;;;;;19.30;7.43;;;9.50;99.90;;;;;;7358334;19;20259;-62
2023/02/18 09:52:59;;;;;;;21.25;7.57;;;9.50;99.90;;;;;;7350463;19;20058;-62
2023/02/18 09:55:38;;;;;;;19.38;7.43;;;9.40;99.90;;;;;;7360162;19;20021;-63
2023/02/18 09:58:12;;;;;;;;;;;9.40;99.90;;;;;;7357674;19;20023;-63
2023/02/18 10:00:51;;;;;;;17.60;6.97;;;9.40;99.90;;;;;;7360498;19;20685;-63
2023/02/18 10:03:22;;;;;;;13.93;6.20;;;9.50;99.90;;;;;;7359909;19;20011;-63
2023/02/18 10:06:04;;;;;;;14.85;6.15;;;9.40;99.90;;;;;;7356366;19;20232;-63
2023/02/18 10:08:35;;;;;;;23.23;7.15;;;9.40;99.90;;;;;;7360898;19;21054;-62
2023/02/18 10:11:02;;;;;;;14.60;5.72;;;9.40;99.90;;;;;;7359494;19;20102;-62
2023/02/18 10:13:49;;;;;;;16.48;6.57;;;9.40;99.90;;;;;;7355092;19;20025;-62
2023/02/18 10:16:23;;;;;;;15.50;6.40;;;9.40;99.90;;;;;;7355358;19;20018;-61
2023/02/18 10:18:54;;;;;;;16.42;6.07;;;9.50;99.90;;;;;;7353965;19;20102;-61
2023/02/18 10:21:26;;;;;;;;;;;9.50;99.90;;;;;;7352752;19;20022;-62
2023/02/18 10:23:56;;;;;;;19.42;6.13;;;9.50;99.90;;;;;;7347481;19;19922;-62
2023/02/18 10:26:24;;;;;;;25.00;6.20;;;9.70;99.90;;;;;;7357377;19;20027;-62
2023/02/18 10:28:51;;;;;;;19.45;5.05;;;9.70;99.90;;;;;;7358438;19;20022;-62
2023/02/18 10:31:31;;;;;;;16.85;4.68;;;9.70;99.90;;;;;;7356870;19;20508;-63
2023/02/18 10:34:05;;;;;;;16.10;4.63;;;9.80;99.90;;;;;;7355658;19;20035;-63
2023/02/18 10:36:40;;;;;;;21.58;4.15;;;9.80;99.90;;;;;;7356087;19;20110;-63
2023/02/18 10:39:42;;;;;;;15.18;4.10;;;9.90;99.90;;;;;;7358620;19;20454;-63
2023/02/18 10:42:38;;;;;;;18.35;4.13;;;9.90;99.90;;;;;;7364681;19;20862;-63
2023/02/18 10:45:10;;;;;;;21.05;3.83;;;9.90;99.90;;;;;;7364643;19;20114;-63
2023/02/18 10:47:38;;;;;;;12.73;3.50;;;9.90;99.90;;;;;;7368991;19;20039;-64
2023/02/18 10:50:16;;;;;;;13.82;3.58;;;9.80;99.90;;;;;;7370642;19;20019;-63
2023/02/18 10:52:49;;;;;;;18.95;4.53;;;9.80;99.90;;;;;;7371763;19;20042;-63
2023/02/18 10:55:17;;;;;;;17.33;3.90;;;9.80;99.90;;;;;;7370019;19;20014;-63
2023/02/18 10:57:49;;;;;;;24.63;3.85;;;9.80;99.90;;;;;;7369865;19;20014;-63
2023/02/18 11:00:26;;;;;;;14.30;3.60;;;9.90;99.90;;;;;;7370878;19;20022;-63
2023/02/18 11:03:11;;;;;;;17.40;4.35;;;9.90;99.90;;;;;;7371028;19;20014;-63
2023/02/18 11:05:38;;;;;;;20.00;4.47;;;10.00;99.90;;;;;;7377108;19;20793;-63
2023/02/18 11:08:08;;;;;;;13.90;3.97;;;10.10;99.90;;;;;;7374855;19;20771;-63
2023/02/18 11:10:40;;;;;;;20.42;3.97;;;10.10;99.90;;;;;;7370444;19;20016;-63
2023/02/18 11:13:10;;;;;;;16.35;3.80;;;10.10;99.90;;;;;;7374196;19;20048;-63
2023/02/18 11:15:37;;;;;;;19.60;3.85;;;10.20;99.90;;;;;;7372728;19;20121;-63
2023/02/18 11:18:36;;;;;;;16.45;4.13;;;10.20;99.90;;;;;;7369354;19;20022;-64
2023/02/18 11:21:18;;;;;;;17.27;3.50;;;10.20;99.90;;;;;;7372077;19;20850;-64
2023/02/18 11:23:52;;;;;;;22.27;4.45;;;10.20;99.90;;;;;;7370856;19;20112;-63
2023/02/18 11:26:27;;;;;;;15.40;4.25;;;10.20;99.90;;;;;;7372716;19;20022;-64
2023/02/18 11:29:05;;;;;;;11.98;3.38;;;10.20;99.90;;;;;;7373741;19;20369;-64
2023/02/18 11:31:55;;;;;;;13.35;3.42;;;10.30;99.90;;;;;;7364002;19;20019;-64
2023/02/18 11:34:29;;;;;;;16.98;3.97;;;10.30;99.90;;;;;;7364579;19;20846;-64
2023/02/18 11:37:17;;;;;;;12.27;3.25;;;10.40;99.90;;;;;;7373865;19;20023;-65
2023/02/18 11:39:48;;;;;;;16.63;3.72;;;10.50;99.90;;;;;;7368052;19;20038;-65
2023/02/18 11:42:17;;;;;;;15.63;3.97;;;10.50;99.90;;;;;;7370078;19;20026;-65
2023/02/18 11:44:51;;;;;;;14.77;3.30;;;10.50;99.90;;;;;;7375482;19;20022;-65
2023/02/18 11:47:36;;;;;;;11.15;4.20;;;10.60;99.90;;;;;;7373136;19;20046;-64
2023/02/18 11:50:08;;;;;;;12.52;3.08;;;10.70;99.90;;;;;;7375149;19;20022;-64
2023/02/18 11:52:45;;;;;;;14.48;3.50;;;10.70;99.90;;;;;;7374686;19;20027;-65
2023/02/18 11:55:26;;;;;;;17.17;3.70;;;10.70;99.90;;;;;;7371667;19;20050;-66
2023/02/18 11:58:02;;;;;;;11.63;3.22;;;10.70;99.90;;;;;;7368423;19;20014;-64
2023/02/18 12:00:43;;;;;;;10.05;2.75;;;10.80;99.90;;;;;;7372299;19;20781;-65
2023/02/18 12:03:30;;;;;;;;;;;10.80;99.90;;;;;;7372082;19;21071;-65
2023/02/18 12:06:02;;;;;;;17.17;4.00;;;10.90;99.90;;;;;;7366378;19;19927;-64
2023/02/18 12:08:46;;;;;;;16.25;3.30;;;10.90;99.90;;;;;;7370641;19;20025;-64
2023/02/18 12:11:48;;;;;;;11.30;3.65;;;10.90;99.90;;;;;;7359908;19;20025;-65
2023/02/18 12:14:22;;;;;;;13.18;3.95;;;10.90;99.90;;;;;;7364292;19;20023;-65
2023/02/18 12:17:16;;;;;;;11.40;3.53;;;10.90;99.90;;;;;;7372808;19;20046;-64
2023/02/18 12:20:22;;;;;;;11.95;3.20;;;11.00;99.90;;;;;;7368880;19;20041;-65
2023/02/18 12:22:57;;;;;;;10.77;3.75;;;11.00;99.90;;;;;;7372589;19;20022;-65
2023/02/18 12:25:48;;;;;;;11.77;3.35;;;11.00;99.90;;;;;;7371630;19;20025;-64
2023/02/18 12:28:33;;;;;;;11.93;3.80;;;11.00;99.90;;;;;;7353826;19;20034;-64
2023/02/18 12:31:08;;;;;;;15.00;3.53;;;11.00;99.90;;;;;;7365457;19;20022;-64
2023/02/18 12:33:55;;;;;;;10.27;3.20;;;11.00;99.90;;;;;;7370919;19;20029;-64
2023/02/18 12:36:27;;;;;;;13.00;3.42;;;11.00;99.90;;;;;;7368104;19;20049;-64
2023/02/18 12:39:16;;;;;;;15.20;4.18;;;11.00;99.90;;;;;;7368743;19;20383;-64
2023/02/18 12:41:58;;;;;;;11.55;3.22;;;11.00;99.90;;;;;;7368087;19;20031;-64
2023/02/18 12:44:57;;;;;;;11.20;3.00;;;11.10;99.90;;;;;;7367372;19;20019;-64
2023/02/18 12:47:29;;;;;;;12.98;3.72;;;11.10;99.90;;;;;;7366783;19;20014;-64
2023/02/18 12:50:00;;;;;;;14.05;3.65;;;11.20;99.90;;;;;;7368824;19;20018;-64
2023/02/18 12:52:44;;;;;;;11.63;3.50;;;11.30;99.90;;;;;;7369583;19;20031;-63
2023/02/18 12:55:20;;;;;;;13.52;3.15;;;11.30;99.90;;;;;;7365716;19;20051;-63
2023/02/18 12:57:58;;;;;;;10.00;3.22;;;11.40;99.90;;;;;;7369915;19;20019;-63
2023/02/18 13:00:42;;;;;;;12.52;3.55;;;11.40;99.90;;;;;;7364470;19;20025;-63
2023/02/18 13:03:27;;;;;;;10.93;3.15;;;11.50;99.90;;;;;;7369480;19;20023;-63